sensor_id;sensor_type;location;lat;lon;timestamp;P1;durP1;ratioP1;P2;durP2;ratioP2
20381;SDS011;10350;51.280;12.400;2023-12-14T00:00:38;36.15;;;33.83;;
20381;SDS011;10350;51.280;12.400;2023-12-14T00:03:03;37.03;;;34.63;;
20381;SDS011;10350;51.280;12.400;2023-12-14T00:05:29;36.83;;;34.40;;
20381;SDS011;10350;51.280;12.400;2023-12-14T00:07:55;36.33;;;33.85;;
20381;SDS011;10350;51.280;12.400;2023-12-14T00:10:21;36.08;;;33.40;;
20381;SDS011;10350;51.280;12.400;2023-12-14T00:12:47;34.83;;;32.63;;
20381;SDS011;10350;51.280;12.400;2023-12-14T00:15:17;38.83;;;36.13;;
20381;SDS011;10350;51.280;12.400;2023-12-14T00:17:45;38.55;;;36.15;;
20381;SDS011;10350;51.280;12.400;2023-12-14T00:20:11;35.35;;;33.08;;
20381;SDS011;10350;51.280;12.400;2023-12-14T00:22:37;35.80;;;33.40;;
20381;SDS011;10350;51.280;12.400;2023-12-14T00:25:03;37.70;;;35.25;;
20381;SDS011;10350;51.280;12.400;2023-12-14T00:27:29;38.60;;;35.72;;
20381;SDS011;10350;51.280;12.400;2023-12-14T00:29:56;36.72;;;34.13;;
20381;SDS011;10350;51.280;12.400;2023-12-14T00:32:22;39.67;;;36.53;;
20381;SDS011;10350;51.280;12.400;2023-12-14T00:34:48;38.88;;;36.08;;
20381;SDS011;10350;51.280;12.400;2023-12-14T00:37:18;41.03;;;37.80;;
20381;SDS011;10350;51.280;12.400;2023-12-14T00:39:44;40.78;;;37.58;;
20381;SDS011;10350;51.280;12.400;2023-12-14T00:42:10;42.92;;;39.47;;
20381;SDS011;10350;51.280;12.400;2023-12-14T00:44:35;42.38;;;38.78;;
20381;SDS011;10350;51.280;12.400;2023-12-14T00:47:01;43.22;;;39.13;;
20381;SDS011;10350;51.280;12.400;2023-12-14T00:49:27;42.35;;;38.47;;
20381;SDS011;10350;51.280;12.400;2023-12-14T00:51:53;45.10;;;41.53;;
20381;SDS011;10350;51.280;12.400;2023-12-14T00:54:19;44.83;;;40.30;;
20381;SDS011;10350;51.280;12.400;2023-12-14T00:56:45;42.25;;;37.92;;
20381;SDS011;10350;51.280;12.400;2023-12-14T00:59:11;42.15;;;37.85;;
20381;SDS011;10350;51.280;12.400;2023-12-14T01:01:37;45.90;;;41.30;;
20381;SDS011;10350;51.280;12.400;2023-12-14T01:04:03;44.03;;;40.40;;
20381;SDS011;10350;51.280;12.400;2023-12-14T01:06:29;39.88;;;36.28;;
20381;SDS011;10350;51.280;12.400;2023-12-14T01:08:55;41.28;;;37.55;;
20381;SDS011;10350;51.280;12.400;2023-12-14T01:11:21;45.53;;;41.28;;
20381;SDS011;10350;51.280;12.400;2023-12-14T01:13:47;42.42;;;38.50;;
20381;SDS011;10350;51.280;12.400;2023-12-14T01:16:13;42.28;;;38.42;;
20381;SDS011;10350;51.280;12.400;2023-12-14T01:18:39;40.97;;;37.25;;
20381;SDS011;10350;51.280;12.400;2023-12-14T01:21:05;45.78;;;41.45;;
20381;SDS011;10350;51.280;12.400;2023-12-14T01:23:31;40.78;;;37.38;;
20381;SDS011;10350;51.280;12.400;2023-12-14T01:25:57;40.17;;;36.60;;
20381;SDS011;10350;51.280;12.400;2023-12-14T01:28:23;42.92;;;38.88;;
20381;SDS011;10350;51.280;12.400;2023-12-14T01:30:48;40.45;;;36.13;;
20381;SDS011;10350;51.280;12.400;2023-12-14T01:33:14;43.15;;;39.25;;
20381;SDS011;10350;51.280;12.400;2023-12-14T01:35:40;39.03;;;35.20;;
20381;SDS011;10350;51.280;12.400;2023-12-14T01:38:07;39.05;;;35.50;;
20381;SDS011;10350;51.280;12.400;2023-12-14T01:40:33;37.72;;;34.83;;
20381;SDS011;10350;51.280;12.400;2023-12-14T01:43:07;38.13;;;34.92;;
20381;SDS011;10350;51.280;12.400;2023-12-14T01:45:35;38.20;;;34.75;;
20381;SDS011;10350;51.280;12.400;2023-12-14T01:48:04;40.58;;;36.90;;
20381;SDS011;10350;51.280;12.400;2023-12-14T01:50:31;39.58;;;36.10;;
20381;SDS011;10350;51.280;12.400;2023-12-14T01:53:00;42.15;;;37.95;;
20381;SDS011;10350;51.280;12.400;2023-12-14T01:55:26;41.95;;;37.72;;
20381;SDS011;10350;51.280;12.400;2023-12-14T01:57:52;40.58;;;37.30;;
20381;SDS011;10350;51.280;12.400;2023-12-14T02:00:21;43.33;;;39.05;;
20381;SDS011;10350;51.280;12.400;2023-12-14T02:02:48;37.30;;;34.20;;
20381;SDS011;10350;51.280;12.400;2023-12-14T02:05:15;38.30;;;35.22;;
20381;SDS011;10350;51.280;12.400;2023-12-14T02:07:41;40.15;;;36.60;;
20381;SDS011;10350;51.280;12.400;2023-12-14T02:10:07;41.22;;;37.70;;
20381;SDS011;10350;51.280;12.400;2023-12-14T02:12:33;41.05;;;37.60;;
20381;SDS011;10350;51.280;12.400;2023-12-14T02:15:00;43.92;;;40.17;;
20381;SDS011;10350;51.280;12.400;2023-12-14T02:17:26;47.53;;;43.58;;
20381;SDS011;10350;51.280;12.400;2023-12-14T02:19:52;49.05;;;45.05;;
20381;SDS011;10350;51.280;12.400;2023-12-14T02:22:17;56.05;;;51.90;;
20381;SDS011;10350;51.280;12.400;2023-12-14T02:24:44;49.28;;;45.08;;
20381;SDS011;10350;51.280;12.400;2023-12-14T02:27:09;49.97;;;45.85;;
20381;SDS011;10350;51.280;12.400;2023-12-14T02:29:35;47.75;;;43.92;;
20381;SDS011;10350;51.280;12.400;2023-12-14T02:32:01;49.17;;;45.20;;
20381;SDS011;10350;51.280;12.400;2023-12-14T02:34:27;47.28;;;43.38;;
20381;SDS011;10350;51.280;12.400;2023-12-14T02:36:53;48.38;;;44.58;;
20381;SDS011;10350;51.280;12.400;2023-12-14T02:39:19;49.20;;;44.97;;
20381;SDS011;10350;51.280;12.400;2023-12-14T02:41:45;50.42;;;46.35;;
20381;SDS011;10350;51.280;12.400;2023-12-14T02:44:11;43.65;;;40.10;;
20381;SDS011;10350;51.280;12.400;2023-12-14T02:46:37;45.83;;;42.28;;
20381;SDS011;10350;51.280;12.400;2023-12-14T02:49:03;44.95;;;41.03;;
20381;SDS011;10350;51.280;12.400;2023-12-14T02:51:28;42.75;;;39.13;;
20381;SDS011;10350;51.280;12.400;2023-12-14T02:53:54;42.97;;;39.58;;
20381;SDS011;10350;51.280;12.400;2023-12-14T02:56:22;41.80;;;38.23;;
20381;SDS011;10350;51.280;12.400;2023-12-14T02:58:48;44.65;;;41.15;;
20381;SDS011;10350;51.280;12.400;2023-12-14T03:01:18;42.45;;;39.00;;
20381;SDS011;10350;51.280;12.400;2023-12-14T03:03:44;44.58;;;41.08;;
20381;SDS011;10350;51.280;12.400;2023-12-14T03:06:10;43.17;;;39.88;;
20381;SDS011;10350;51.280;12.400;2023-12-14T03:08:36;41.53;;;38.25;;
20381;SDS011;10350;51.280;12.400;2023-12-14T03:11:02;43.25;;;39.70;;
20381;SDS011;10350;51.280;12.400;2023-12-14T03:13:28;43.92;;;40.20;;
20381;SDS011;10350;51.280;12.400;2023-12-14T03:15:55;43.60;;;40.28;;
20381;SDS011;10350;51.280;12.400;2023-12-14T03:18:20;42.00;;;38.08;;
20381;SDS011;10350;51.280;12.400;2023-12-14T03:20:46;44.60;;;40.85;;
20381;SDS011;10350;51.280;12.400;2023-12-14T03:23:12;43.97;;;40.10;;
20381;SDS011;10350;51.280;12.400;2023-12-14T03:25:38;45.67;;;42.33;;
20381;SDS011;10350;51.280;12.400;2023-12-14T03:28:04;46.75;;;43.20;;
20381;SDS011;10350;51.280;12.400;2023-12-14T03:30:30;48.33;;;44.50;;
20381;SDS011;10350;51.280;12.400;2023-12-14T03:32:56;47.28;;;43.78;;
20381;SDS011;10350;51.280;12.400;2023-12-14T03:35:22;48.10;;;44.20;;
20381;SDS011;10350;51.280;12.400;2023-12-14T03:37:48;49.20;;;45.28;;
20381;SDS011;10350;51.280;12.400;2023-12-14T03:40:14;51.85;;;46.95;;
20381;SDS011;10350;51.280;12.400;2023-12-14T03:42:40;50.00;;;45.90;;
20381;SDS011;10350;51.280;12.400;2023-12-14T03:45:06;52.67;;;48.70;;
20381;SDS011;10350;51.280;12.400;2023-12-14T03:47:32;50.13;;;46.60;;
20381;SDS011;10350;51.280;12.400;2023-12-14T03:49:58;46.42;;;42.78;;
20381;SDS011;10350;51.280;12.400;2023-12-14T03:52:24;48.03;;;44.35;;
20381;SDS011;10350;51.280;12.400;2023-12-14T03:54:50;47.53;;;44.10;;
20381;SDS011;10350;51.280;12.400;2023-12-14T03:57:16;55.70;;;51.03;;
20381;SDS011;10350;51.280;12.400;2023-12-14T03:59:42;50.38;;;46.80;;
20381;SDS011;10350;51.280;12.400;2023-12-14T04:02:08;52.20;;;48.25;;
20381;SDS011;10350;51.280;12.400;2023-12-14T04:04:34;51.80;;;48.17;;
20381;SDS011;10350;51.280;12.400;2023-12-14T04:07:00;51.72;;;48.20;;
20381;SDS011;10350;51.280;12.400;2023-12-14T04:09:26;49.45;;;45.75;;
20381;SDS011;10350;51.280;12.400;2023-12-14T04:11:52;51.25;;;47.35;;
20381;SDS011;10350;51.280;12.400;2023-12-14T04:14:17;52.88;;;48.50;;
20381;SDS011;10350;51.280;12.400;2023-12-14T04:16:43;51.55;;;47.70;;
20381;SDS011;10350;51.280;12.400;2023-12-14T04:19:09;50.00;;;46.00;;
20381;SDS011;10350;51.280;12.400;2023-12-14T04:21:36;49.80;;;45.83;;
20381;SDS011;10350;51.280;12.400;2023-12-14T04:24:02;51.53;;;47.60;;
20381;SDS011;10350;51.280;12.400;2023-12-14T04:26:28;52.08;;;47.70;;
20381;SDS011;10350;51.280;12.400;2023-12-14T04:28:56;50.85;;;46.72;;
20381;SDS011;10350;51.280;12.400;2023-12-14T04:31:22;49.78;;;45.90;;
20381;SDS011;10350;51.280;12.400;2023-12-14T04:33:48;51.70;;;47.28;;
20381;SDS011;10350;51.280;12.400;2023-12-14T04:36:14;50.17;;;46.03;;
20381;SDS011;10350;51.280;12.400;2023-12-14T04:38:40;52.25;;;47.92;;
20381;SDS011;10350;51.280;12.400;2023-12-14T04:41:07;51.17;;;47.17;;
20381;SDS011;10350;51.280;12.400;2023-12-14T04:43:33;48.15;;;44.28;;
20381;SDS011;10350;51.280;12.400;2023-12-14T04:45:59;48.20;;;44.30;;
20381;SDS011;10350;51.280;12.400;2023-12-14T04:48:25;51.70;;;47.33;;
20381;SDS011;10350;51.280;12.400;2023-12-14T04:50:51;53.47;;;48.83;;
20381;SDS011;10350;51.280;12.400;2023-12-14T04:53:17;55.08;;;50.90;;
20381;SDS011;10350;51.280;12.400;2023-12-14T04:55:43;48.85;;;45.47;;
20381;SDS011;10350;51.280;12.400;2023-12-14T04:58:09;48.25;;;44.45;;
20381;SDS011;10350;51.280;12.400;2023-12-14T05:00:35;51.63;;;47.42;;
20381;SDS011;10350;51.280;12.400;2023-12-14T05:03:02;48.03;;;44.40;;
20381;SDS011;10350;51.280;12.400;2023-12-14T05:05:28;44.88;;;41.45;;
20381;SDS011;10350;51.280;12.400;2023-12-14T05:07:54;45.97;;;41.83;;
20381;SDS011;10350;51.280;12.400;2023-12-14T05:10:21;39.33;;;35.60;;
20381;SDS011;10350;51.280;12.400;2023-12-14T05:12:47;38.97;;;35.40;;
20381;SDS011;10350;51.280;12.400;2023-12-14T05:15:13;39.30;;;35.78;;
20381;SDS011;10350;51.280;12.400;2023-12-14T05:17:39;37.13;;;33.92;;
20381;SDS011;10350;51.280;12.400;2023-12-14T05:20:07;37.53;;;34.53;;
20381;SDS011;10350;51.280;12.400;2023-12-14T05:22:36;37.25;;;34.03;;
20381;SDS011;10350;51.280;12.400;2023-12-14T05:25:01;34.95;;;32.05;;
20381;SDS011;10350;51.280;12.400;2023-12-14T05:27:27;36.22;;;33.30;;
20381;SDS011;10350;51.280;12.400;2023-12-14T05:29:53;38.25;;;34.25;;
20381;SDS011;10350;51.280;12.400;2023-12-14T05:32:19;35.35;;;32.35;;
20381;SDS011;10350;51.280;12.400;2023-12-14T05:34:45;41.00;;;37.08;;
20381;SDS011;10350;51.280;12.400;2023-12-14T05:37:12;37.90;;;35.08;;
20381;SDS011;10350;51.280;12.400;2023-12-14T05:39:40;38.70;;;36.00;;
20381;SDS011;10350;51.280;12.400;2023-12-14T05:42:07;37.05;;;33.97;;
20381;SDS011;10350;51.280;12.400;2023-12-14T05:44:32;35.85;;;32.53;;
20381;SDS011;10350;51.280;12.400;2023-12-14T05:46:58;35.25;;;32.30;;
20381;SDS011;10350;51.280;12.400;2023-12-14T05:49:24;34.83;;;31.83;;
20381;SDS011;10350;51.280;12.400;2023-12-14T05:51:50;35.08;;;32.45;;
20381;SDS011;10350;51.280;12.400;2023-12-14T05:54:16;34.97;;;32.28;;
20381;SDS011;10350;51.280;12.400;2023-12-14T05:56:44;33.72;;;31.05;;
20381;SDS011;10350;51.280;12.400;2023-12-14T06:02:22;33.85;;;31.27;;
20381;SDS011;10350;51.280;12.400;2023-12-14T06:05:08;28.73;;;26.25;;
20381;SDS011;10350;51.280;12.400;2023-12-14T06:07:57;35.67;;;32.60;;
20381;SDS011;10350;51.280;12.400;2023-12-14T06:10:26;32.57;;;30.07;;
20381;SDS011;10350;51.280;12.400;2023-12-14T06:16:40;31.17;;;28.98;;
20381;SDS011;10350;51.280;12.400;2023-12-14T06:22:38;33.28;;;30.55;;
20381;SDS011;10350;51.280;12.400;2023-12-14T06:25:04;34.13;;;31.45;;
20381;SDS011;10350;51.280;12.400;2023-12-14T06:27:30;33.85;;;31.08;;
20381;SDS011;10350;51.280;12.400;2023-12-14T06:29:57;34.38;;;31.50;;
20381;SDS011;10350;51.280;12.400;2023-12-14T06:32:22;33.97;;;31.38;;
20381;SDS011;10350;51.280;12.400;2023-12-14T06:34:50;34.45;;;31.63;;
20381;SDS011;10350;51.280;12.400;2023-12-14T06:37:19;36.40;;;33.70;;
20381;SDS011;10350;51.280;12.400;2023-12-14T06:39:45;35.50;;;32.60;;
20381;SDS011;10350;51.280;12.400;2023-12-14T06:42:11;34.80;;;32.33;;
20381;SDS011;10350;51.280;12.400;2023-12-14T06:44:37;34.13;;;31.05;;
20381;SDS011;10350;51.280;12.400;2023-12-14T06:47:03;36.88;;;33.97;;
20381;SDS011;10350;51.280;12.400;2023-12-14T06:49:29;36.22;;;33.35;;
20381;SDS011;10350;51.280;12.400;2023-12-14T06:51:55;34.35;;;31.40;;
20381;SDS011;10350;51.280;12.400;2023-12-14T06:54:21;35.70;;;32.72;;
20381;SDS011;10350;51.280;12.400;2023-12-14T06:56:47;33.15;;;30.88;;
20381;SDS011;10350;51.280;12.400;2023-12-14T06:59:13;35.45;;;32.85;;
20381;SDS011;10350;51.280;12.400;2023-12-14T07:01:39;33.70;;;30.63;;
20381;SDS011;10350;51.280;12.400;2023-12-14T07:04:05;36.95;;;34.38;;
20381;SDS011;10350;51.280;12.400;2023-12-14T07:06:33;39.00;;;35.83;;
20381;SDS011;10350;51.280;12.400;2023-12-14T07:09:00;34.45;;;31.45;;
20381;SDS011;10350;51.280;12.400;2023-12-14T07:11:26;38.17;;;35.20;;
20381;SDS011;10350;51.280;12.400;2023-12-14T07:13:52;39.88;;;36.85;;
20381;SDS011;10350;51.280;12.400;2023-12-14T07:16:18;36.85;;;33.92;;
20381;SDS011;10350;51.280;12.400;2023-12-14T07:18:45;36.93;;;34.27;;
20381;SDS011;10350;51.280;12.400;2023-12-14T07:21:12;35.60;;;33.15;;
20381;SDS011;10350;51.280;12.400;2023-12-14T07:23:38;35.17;;;32.55;;
20381;SDS011;10350;51.280;12.400;2023-12-14T07:26:04;38.13;;;34.85;;
20381;SDS011;10350;51.280;12.400;2023-12-14T07:28:30;36.53;;;33.65;;
20381;SDS011;10350;51.280;12.400;2023-12-14T07:30:55;38.38;;;34.80;;
20381;SDS011;10350;51.280;12.400;2023-12-14T07:33:21;38.15;;;35.03;;
20381;SDS011;10350;51.280;12.400;2023-12-14T07:35:47;36.45;;;33.92;;
20381;SDS011;10350;51.280;12.400;2023-12-14T07:38:13;38.13;;;35.20;;
20381;SDS011;10350;51.280;12.400;2023-12-14T07:40:39;33.92;;;31.08;;
20381;SDS011;10350;51.280;12.400;2023-12-14T07:43:06;36.50;;;33.28;;
20381;SDS011;10350;51.280;12.400;2023-12-14T07:45:32;37.72;;;34.70;;
20381;SDS011;10350;51.280;12.400;2023-12-14T07:47:59;34.40;;;31.90;;
20381;SDS011;10350;51.280;12.400;2023-12-14T07:50:25;34.95;;;32.17;;
20381;SDS011;10350;51.280;12.400;2023-12-14T07:52:51;35.35;;;32.75;;
20381;SDS011;10350;51.280;12.400;2023-12-14T07:55:17;33.92;;;31.40;;
20381;SDS011;10350;51.280;12.400;2023-12-14T07:57:44;35.47;;;32.60;;
20381;SDS011;10350;51.280;12.400;2023-12-14T08:00:10;34.92;;;32.35;;
20381;SDS011;10350;51.280;12.400;2023-12-14T08:02:36;35.88;;;33.28;;
20381;SDS011;10350;51.280;12.400;2023-12-14T08:05:02;36.00;;;33.25;;
20381;SDS011;10350;51.280;12.400;2023-12-14T08:07:28;36.70;;;34.08;;
20381;SDS011;10350;51.280;12.400;2023-12-14T08:09:54;35.60;;;33.00;;
20381;SDS011;10350;51.280;12.400;2023-12-14T08:12:21;37.55;;;34.45;;
20381;SDS011;10350;51.280;12.400;2023-12-14T08:14:47;39.55;;;35.92;;
20381;SDS011;10350;51.280;12.400;2023-12-14T08:17:13;39.22;;;36.22;;
20381;SDS011;10350;51.280;12.400;2023-12-14T08:19:39;38.78;;;35.45;;
20381;SDS011;10350;51.280;12.400;2023-12-14T08:22:05;36.17;;;33.30;;
20381;SDS011;10350;51.280;12.400;2023-12-14T08:24:32;39.43;;;35.50;;
20381;SDS011;10350;51.280;12.400;2023-12-14T08:26:58;40.55;;;37.05;;
20381;SDS011;10350;51.280;12.400;2023-12-14T08:29:24;39.60;;;36.30;;
20381;SDS011;10350;51.280;12.400;2023-12-14T08:31:50;40.63;;;37.15;;
20381;SDS011;10350;51.280;12.400;2023-12-14T08:34:16;42.22;;;38.33;;
20381;SDS011;10350;51.280;12.400;2023-12-14T08:36:41;39.15;;;35.70;;
20381;SDS011;10350;51.280;12.400;2023-12-14T08:39:07;39.75;;;36.20;;
20381;SDS011;10350;51.280;12.400;2023-12-14T08:41:33;40.50;;;36.85;;
20381;SDS011;10350;51.280;12.400;2023-12-14T08:43:59;36.50;;;33.53;;
20381;SDS011;10350;51.280;12.400;2023-12-14T08:46:25;39.47;;;35.90;;
20381;SDS011;10350;51.280;12.400;2023-12-14T08:48:51;40.70;;;36.58;;
20381;SDS011;10350;51.280;12.400;2023-12-14T08:51:17;40.53;;;36.80;;
20381;SDS011;10350;51.280;12.400;2023-12-14T08:53:45;41.45;;;37.60;;
20381;SDS011;10350;51.280;12.400;2023-12-14T08:56:11;41.10;;;37.63;;
20381;SDS011;10350;51.280;12.400;2023-12-14T08:58:37;40.17;;;36.60;;
20381;SDS011;10350;51.280;12.400;2023-12-14T09:01:03;40.65;;;37.05;;
20381;SDS011;10350;51.280;12.400;2023-12-14T09:03:29;41.05;;;37.50;;
20381;SDS011;10350;51.280;12.400;2023-12-14T09:05:55;38.58;;;35.45;;
20381;SDS011;10350;51.280;12.400;2023-12-14T09:08:21;42.00;;;38.45;;
20381;SDS011;10350;51.280;12.400;2023-12-14T09:10:47;38.40;;;35.50;;
20381;SDS011;10350;51.280;12.400;2023-12-14T09:13:13;39.60;;;36.42;;
20381;SDS011;10350;51.280;12.400;2023-12-14T09:15:38;41.00;;;37.67;;
20381;SDS011;10350;51.280;12.400;2023-12-14T09:18:04;38.55;;;35.47;;
20381;SDS011;10350;51.280;12.400;2023-12-14T09:20:31;39.55;;;36.45;;
20381;SDS011;10350;51.280;12.400;2023-12-14T09:23:00;37.60;;;34.10;;
20381;SDS011;10350;51.280;12.400;2023-12-14T09:25:26;37.55;;;34.38;;
20381;SDS011;10350;51.280;12.400;2023-12-14T09:27:52;36.97;;;33.67;;
20381;SDS011;10350;51.280;12.400;2023-12-14T09:30:18;36.90;;;33.85;;
20381;SDS011;10350;51.280;12.400;2023-12-14T09:32:44;38.38;;;35.38;;
20381;SDS011;10350;51.280;12.400;2023-12-14T09:35:09;37.05;;;34.20;;
20381;SDS011;10350;51.280;12.400;2023-12-14T09:37:35;38.75;;;35.85;;
20381;SDS011;10350;51.280;12.400;2023-12-14T09:40:01;34.95;;;31.80;;
20381;SDS011;10350;51.280;12.400;2023-12-14T09:42:27;36.05;;;33.45;;
20381;SDS011;10350;51.280;12.400;2023-12-14T09:44:53;34.75;;;32.38;;
20381;SDS011;10350;51.280;12.400;2023-12-14T09:47:21;35.53;;;32.40;;
20381;SDS011;10350;51.280;12.400;2023-12-14T09:49:47;37.83;;;34.95;;
20381;SDS011;10350;51.280;12.400;2023-12-14T09:52:13;38.45;;;35.35;;
20381;SDS011;10350;51.280;12.400;2023-12-14T09:54:39;39.13;;;36.20;;
20381;SDS011;10350;51.280;12.400;2023-12-14T09:57:05;38.70;;;35.85;;
20381;SDS011;10350;51.280;12.400;2023-12-14T09:59:31;36.72;;;33.95;;
20381;SDS011;10350;51.280;12.400;2023-12-14T10:02:08;34.85;;;32.22;;
20381;SDS011;10350;51.280;12.400;2023-12-14T10:04:35;37.33;;;34.40;;
20381;SDS011;10350;51.280;12.400;2023-12-14T10:07:01;37.35;;;34.65;;
20381;SDS011;10350;51.280;12.400;2023-12-14T10:09:31;33.63;;;31.45;;
20381;SDS011;10350;51.280;12.400;2023-12-14T10:12:02;35.17;;;32.78;;
20381;SDS011;10350;51.280;12.400;2023-12-14T10:14:32;37.22;;;34.67;;
20381;SDS011;10350;51.280;12.400;2023-12-14T10:17:13;38.63;;;36.22;;
20381;SDS011;10350;51.280;12.400;2023-12-14T10:19:42;36.65;;;34.13;;
20381;SDS011;10350;51.280;12.400;2023-12-14T10:22:08;35.92;;;33.70;;
20381;SDS011;10350;51.280;12.400;2023-12-14T10:24:34;35.13;;;32.85;;
20381;SDS011;10350;51.280;12.400;2023-12-14T10:27:04;34.60;;;32.50;;
20381;SDS011;10350;51.280;12.400;2023-12-14T10:29:32;33.50;;;31.15;;
20381;SDS011;10350;51.280;12.400;2023-12-14T10:31:59;35.70;;;33.38;;
20381;SDS011;10350;51.280;12.400;2023-12-14T10:34:25;35.13;;;32.67;;
20381;SDS011;10350;51.280;12.400;2023-12-14T10:37:00;35.95;;;33.10;;
20381;SDS011;10350;51.280;12.400;2023-12-14T10:39:26;34.05;;;31.98;;
20381;SDS011;10350;51.280;12.400;2023-12-14T10:41:53;35.70;;;33.42;;
20381;SDS011;10350;51.280;12.400;2023-12-14T10:44:20;34.33;;;32.10;;
20381;SDS011;10350;51.280;12.400;2023-12-14T10:46:48;37.35;;;34.75;;
20381;SDS011;10350;51.280;12.400;2023-12-14T10:49:14;34.25;;;31.73;;
20381;SDS011;10350;51.280;12.400;2023-12-14T10:51:41;33.55;;;31.25;;
20381;SDS011;10350;51.280;12.400;2023-12-14T10:54:07;35.38;;;32.60;;
20381;SDS011;10350;51.280;12.400;2023-12-14T10:56:33;32.92;;;30.63;;
20381;SDS011;10350;51.280;12.400;2023-12-14T10:59:00;33.72;;;31.38;;
20381;SDS011;10350;51.280;12.400;2023-12-14T11:01:28;34.97;;;32.50;;
20381;SDS011;10350;51.280;12.400;2023-12-14T11:03:55;34.80;;;32.42;;
20381;SDS011;10350;51.280;12.400;2023-12-14T11:06:28;37.50;;;34.85;;
20381;SDS011;10350;51.280;12.400;2023-12-14T11:08:59;33.45;;;31.25;;
20381;SDS011;10350;51.280;12.400;2023-12-14T11:11:29;37.05;;;33.78;;
20381;SDS011;10350;51.280;12.400;2023-12-14T11:13:56;34.78;;;32.08;;
20381;SDS011;10350;51.280;12.400;2023-12-14T11:16:23;34.47;;;32.15;;
20381;SDS011;10350;51.280;12.400;2023-12-14T11:19:23;36.15;;;33.60;;
20381;SDS011;10350;51.280;12.400;2023-12-14T11:21:36;31.23;;;29.13;;
20381;SDS011;10350;51.280;12.400;2023-12-14T11:24:14;32.75;;;30.55;;
20381;SDS011;10350;51.280;12.400;2023-12-14T11:26:41;30.73;;;28.55;;
20381;SDS011;10350;51.280;12.400;2023-12-14T11:29:07;34.75;;;32.00;;
20381;SDS011;10350;51.280;12.400;2023-12-14T11:31:33;32.35;;;30.02;;
20381;SDS011;10350;51.280;12.400;2023-12-14T11:34:00;31.35;;;28.90;;
20381;SDS011;10350;51.280;12.400;2023-12-14T11:36:28;31.90;;;29.05;;
20381;SDS011;10350;51.280;12.400;2023-12-14T11:38:54;32.15;;;29.80;;
20381;SDS011;10350;51.280;12.400;2023-12-14T11:41:25;31.35;;;29.00;;
20381;SDS011;10350;51.280;12.400;2023-12-14T11:43:54;32.67;;;30.33;;
20381;SDS011;10350;51.280;12.400;2023-12-14T11:46:20;33.13;;;30.70;;
20381;SDS011;10350;51.280;12.400;2023-12-14T11:48:46;31.67;;;29.63;;
20381;SDS011;10350;51.280;12.400;2023-12-14T11:51:16;33.38;;;31.02;;
20381;SDS011;10350;51.280;12.400;2023-12-14T11:53:45;33.65;;;31.13;;
20381;SDS011;10350;51.280;12.400;2023-12-14T11:56:12;32.10;;;30.23;;
20381;SDS011;10350;51.280;12.400;2023-12-14T11:58:40;32.08;;;29.95;;
20381;SDS011;10350;51.280;12.400;2023-12-14T12:01:25;31.13;;;28.80;;
20381;SDS011;10350;51.280;12.400;2023-12-14T12:03:53;30.65;;;28.80;;
20381;SDS011;10350;51.280;12.400;2023-12-14T12:06:25;34.65;;;32.50;;
20381;SDS011;10350;51.280;12.400;2023-12-14T12:08:55;32.55;;;30.58;;
20381;SDS011;10350;51.280;12.400;2023-12-14T12:11:21;32.38;;;30.38;;
20381;SDS011;10350;51.280;12.400;2023-12-14T12:13:51;34.08;;;31.98;;
20381;SDS011;10350;51.280;12.400;2023-12-14T12:16:17;33.60;;;31.52;;
20381;SDS011;10350;51.280;12.400;2023-12-14T12:18:43;33.65;;;31.55;;
20381;SDS011;10350;51.280;12.400;2023-12-14T12:21:10;33.10;;;31.00;;
20381;SDS011;10350;51.280;12.400;2023-12-14T12:23:36;33.22;;;31.13;;
20381;SDS011;10350;51.280;12.400;2023-12-14T12:26:03;34.55;;;31.98;;
20381;SDS011;10350;51.280;12.400;2023-12-14T12:28:30;33.42;;;31.30;;
20381;SDS011;10350;51.280;12.400;2023-12-14T12:30:56;33.72;;;31.23;;
20381;SDS011;10350;51.280;12.400;2023-12-14T12:33:22;35.13;;;32.78;;
20381;SDS011;10350;51.280;12.400;2023-12-14T12:35:48;31.88;;;29.90;;
20381;SDS011;10350;51.280;12.400;2023-12-14T12:38:14;34.42;;;31.83;;
20381;SDS011;10350;51.280;12.400;2023-12-14T12:40:41;33.75;;;31.45;;
20381;SDS011;10350;51.280;12.400;2023-12-14T12:43:07;34.78;;;32.38;;
20381;SDS011;10350;51.280;12.400;2023-12-14T12:45:33;33.20;;;30.60;;
20381;SDS011;10350;51.280;12.400;2023-12-14T12:48:00;30.00;;;27.92;;
20381;SDS011;10350;51.280;12.400;2023-12-14T12:50:28;34.05;;;31.05;;
20381;SDS011;10350;51.280;12.400;2023-12-14T12:52:54;31.40;;;29.20;;
20381;SDS011;10350;51.280;12.400;2023-12-14T12:55:23;34.20;;;31.60;;
20381;SDS011;10350;51.280;12.400;2023-12-14T12:57:49;35.72;;;32.83;;
20381;SDS011;10350;51.280;12.400;2023-12-14T13:00:15;33.67;;;31.05;;
20381;SDS011;10350;51.280;12.400;2023-12-14T13:02:42;34.38;;;31.58;;
20381;SDS011;10350;51.280;12.400;2023-12-14T13:05:09;34.65;;;32.30;;
20381;SDS011;10350;51.280;12.400;2023-12-14T13:07:35;34.80;;;32.20;;
20381;SDS011;10350;51.280;12.400;2023-12-14T13:10:02;34.67;;;32.08;;
20381;SDS011;10350;51.280;12.400;2023-12-14T13:12:28;33.97;;;31.63;;
20381;SDS011;10350;51.280;12.400;2023-12-14T13:14:54;34.53;;;32.00;;
20381;SDS011;10350;51.280;12.400;2023-12-14T13:17:20;32.08;;;29.90;;
20381;SDS011;10350;51.280;12.400;2023-12-14T13:19:47;34.17;;;31.35;;
20381;SDS011;10350;51.280;12.400;2023-12-14T13:22:13;32.50;;;30.17;;
20381;SDS011;10350;51.280;12.400;2023-12-14T13:24:39;32.42;;;30.10;;
20381;SDS011;10350;51.280;12.400;2023-12-14T13:27:05;32.33;;;30.17;;
20381;SDS011;10350;51.280;12.400;2023-12-14T13:29:31;30.75;;;28.75;;
20381;SDS011;10350;51.280;12.400;2023-12-14T13:31:57;30.30;;;28.20;;
20381;SDS011;10350;51.280;12.400;2023-12-14T13:34:24;29.95;;;27.58;;
20381;SDS011;10350;51.280;12.400;2023-12-14T13:36:50;29.88;;;28.10;;
20381;SDS011;10350;51.280;12.400;2023-12-14T13:39:16;30.75;;;28.95;;
20381;SDS011;10350;51.280;12.400;2023-12-14T13:41:44;31.50;;;29.35;;
20381;SDS011;10350;51.280;12.400;2023-12-14T13:44:10;30.77;;;28.88;;
20381;SDS011;10350;51.280;12.400;2023-12-14T13:46:36;29.48;;;27.48;;
20381;SDS011;10350;51.280;12.400;2023-12-14T13:49:02;30.00;;;28.17;;
20381;SDS011;10350;51.280;12.400;2023-12-14T13:51:28;30.85;;;29.02;;
20381;SDS011;10350;51.280;12.400;2023-12-14T13:53:54;31.80;;;29.77;;
20381;SDS011;10350;51.280;12.400;2023-12-14T13:56:20;33.22;;;30.83;;
20381;SDS011;10350;51.280;12.400;2023-12-14T13:58:46;34.00;;;31.88;;
20381;SDS011;10350;51.280;12.400;2023-12-14T14:01:12;31.02;;;29.13;;
20381;SDS011;10350;51.280;12.400;2023-12-14T14:03:40;31.58;;;29.48;;
20381;SDS011;10350;51.280;12.400;2023-12-14T14:06:06;30.23;;;28.20;;
20381;SDS011;10350;51.280;12.400;2023-12-14T14:08:32;30.98;;;28.63;;
20381;SDS011;10350;51.280;12.400;2023-12-14T14:10:59;31.70;;;29.38;;
20381;SDS011;10350;51.280;12.400;2023-12-14T14:13:25;32.90;;;30.70;;
20381;SDS011;10350;51.280;12.400;2023-12-14T14:15:51;30.63;;;28.40;;